createdAt,value
2019-05-22T05:47:17.552Z,704.00
2019-05-22T05:48:15.527Z,756.00
2019-05-22T05:49:16.360Z,760.00
2019-05-22T05:50:15.449Z,760.00
2019-05-22T05:51:15.173Z,724.00
2019-05-22T05:52:15.616Z,700.00
2019-05-22T05:53:15.995Z,700.00
2019-05-22T05:59:51.489Z,816.00
2019-05-22T06:00:50.460Z,840.00
2019-05-22T06:01:49.774Z,848.00
2019-05-22T06:02:56.612Z,904.00
2019-05-22T06:03:49.752Z,956.00
2019-05-22T06:04:49.228Z,1060.00
2019-05-22T06:05:50.751Z,1068.00
2019-05-22T06:07:17.860Z,1004.00
2019-05-22T06:07:50.065Z,940.00
2019-05-22T06:08:50.186Z,928.00
2019-05-22T06:09:49.662Z,936.00
2019-05-22T06:10:50.220Z,960.00
2019-05-22T06:11:50.457Z,940.00
2019-05-22T06:12:50.094Z,920.00
2019-05-22T06:13:50.482Z,900.00
2019-05-22T06:14:49.449Z,908.00
2019-05-22T06:15:50.602Z,864.00
2019-05-22T06:16:49.484Z,852.00
2019-05-22T06:17:49.878Z,876.00
2019-05-22T06:18:49.250Z,888.00
2019-05-22T06:19:49.007Z,916.00
2019-05-22T06:21:02.725Z,884.00
2019-05-22T06:21:49.247Z,916.00
2019-05-22T06:22:49.242Z,932.00
2019-05-22T06:23:49.088Z,952.00
2019-05-22T06:24:49.012Z,952.00
2019-05-22T06:25:49.228Z,928.00
2019-05-22T06:26:49.458Z,908.00
2019-05-22T06:27:50.027Z,888.00
2019-05-22T06:28:49.236Z,876.00
2019-05-22T06:29:49.241Z,852.00
2019-05-22T06:30:49.142Z,832.00
2019-05-22T06:31:49.432Z,820.00
2019-05-22T06:32:49.576Z,824.00
2019-05-22T06:33:49.496Z,840.00
2019-05-22T06:34:49.780Z,892.00
2019-05-22T06:35:49.240Z,936.00
2019-05-22T06:36:49.300Z,1016.00
2019-05-22T06:37:49.330Z,1036.00
2019-05-22T06:38:49.442Z,1048.00
2019-05-22T06:39:49.270Z,1016.00
2019-05-22T06:40:49.335Z,1012.00
2019-05-22T06:41:50.189Z,1008.00
2019-05-22T06:42:50.133Z,1000.00
2019-05-22T06:43:49.436Z,984.00
2019-05-22T06:44:49.647Z,968.00
2019-05-22T06:45:49.549Z,988.00
2019-05-22T06:46:50.474Z,1008.00
2019-05-22T06:47:49.539Z,1036.00
2019-05-22T06:48:49.884Z,1044.00
2019-05-22T06:49:49.791Z,1060.00
2019-05-22T06:50:49.651Z,1032.00
2019-05-22T06:51:49.800Z,1012.00
2019-05-22T06:52:49.465Z,1044.00
2019-05-22T06:53:50.417Z,1096.00
2019-05-22T06:54:50.400Z,1220.00
2019-05-22T06:55:49.818Z,1480.00
2019-05-22T06:56:49.712Z,1716.00
2019-05-22T06:57:49.829Z,1832.00
2019-05-22T06:58:50.191Z,1864.00
2019-05-22T07:00:10.707Z,1664.00
2019-05-22T07:00:50.141Z,1456.00
2019-05-22T07:01:49.661Z,1356.00
2019-05-22T07:02:50.061Z,1300.00
2019-05-22T07:03:51.092Z,1284.00
2019-05-22T07:04:50.086Z,1256.00
2019-05-22T07:05:50.545Z,1232.00
2019-05-22T07:06:50.000Z,1232.00
2019-05-22T07:07:50.092Z,1224.00
2019-05-22T07:08:50.229Z,1212.00
2019-05-22T07:09:50.759Z,1176.00
2019-05-22T07:10:50.099Z,1132.00
2019-05-22T07:11:50.018Z,1100.00
2019-05-22T07:12:52.341Z,1080.00
2019-05-22T07:13:57.198Z,1088.00
2019-05-22T07:14:50.051Z,1132.00
2019-05-22T07:15:51.751Z,1180.00
2019-05-22T07:16:50.765Z,1236.00
2019-05-22T07:17:50.569Z,1312.00
2019-05-22T07:18:50.872Z,1416.00
2019-05-22T07:19:52.908Z,1496.00
2019-05-22T07:20:50.758Z,1552.00
2019-05-22T07:21:50.289Z,1664.00
2019-05-22T07:22:50.525Z,1748.00
2019-05-22T07:23:49.968Z,1768.00
2019-05-22T07:24:52.059Z,1860.00
2019-05-22T07:25:50.163Z,1980.00
2019-05-22T07:26:50.487Z,2108.00
2019-05-22T07:27:50.415Z,2208.00
2019-05-22T07:28:50.372Z,2292.00
2019-05-22T07:29:57.157Z,2376.00
2019-05-22T07:30:51.022Z,2540.00
2019-05-22T07:31:52.931Z,2676.00
2019-05-22T07:32:50.700Z,2896.00
2019-05-22T07:33:50.108Z,3436.00
2019-05-22T07:34:50.440Z,3656.00
2019-05-22T07:36:08.759Z,3560.00
2019-05-22T07:36:50.222Z,3352.00
2019-05-22T07:37:50.182Z,4708.00
2019-05-22T07:38:50.249Z,2580.00
2019-05-22T07:39:51.513Z,2496.00
2019-05-22T07:40:51.485Z,2984.00
2019-05-22T07:41:50.400Z,3316.00
2019-05-22T07:42:50.265Z,3412.00
2019-05-22T07:43:50.294Z,3704.00
2019-05-22T07:44:50.290Z,3736.00
2019-05-22T07:45:50.418Z,4132.00
2019-05-22T07:46:50.350Z,4692.00
2019-05-22T07:47:50.319Z,5196.00
2019-05-22T07:48:50.419Z,5736.00
2019-05-22T07:49:50.438Z,6108.00
2019-05-22T07:50:50.491Z,6344.00
2019-05-22T07:51:57.522Z,6416.00
2019-05-22T07:52:50.554Z,6376.00
2019-05-22T07:53:50.475Z,6616.00
2019-05-22T07:54:50.535Z,6404.00
2019-05-22T07:55:50.484Z,5940.00
2019-05-22T07:56:51.489Z,5644.00
2019-05-22T07:57:51.859Z,5700.00
2019-05-22T07:58:52.105Z,5636.00
2019-05-22T07:59:50.520Z,5976.00
2019-05-22T08:00:50.638Z,6748.00
2019-05-22T08:01:50.721Z,6688.00
2019-05-22T08:02:53.979Z,5908.00
2019-05-22T08:03:54.667Z,5652.00
2019-05-22T08:05:02.403Z,5888.00
2019-05-22T08:05:51.072Z,5820.00
2019-05-22T08:06:50.701Z,6264.00
2019-05-22T08:07:50.781Z,6908.00
2019-05-22T08:08:50.696Z,7008.00
2019-05-22T08:09:50.739Z,6424.00
2019-05-22T08:10:50.761Z,5928.00
2019-05-22T08:11:50.815Z,5520.00
2019-05-22T08:12:50.766Z,4848.00
2019-05-22T08:13:50.908Z,4828.00
2019-05-22T08:14:52.808Z,5420.00
2019-05-22T08:15:50.799Z,5988.00
2019-05-22T08:16:50.878Z,6776.00
2019-05-22T08:17:50.932Z,8072.00
2019-05-22T08:18:50.872Z,4820.00
2019-05-22T08:19:50.945Z,4372.00
2019-05-22T08:20:50.995Z,4228.00
2019-05-22T08:22:05.812Z,4232.00
2019-05-22T08:22:50.985Z,4616.00
2019-05-22T08:23:50.965Z,5264.00
2019-05-22T08:24:50.986Z,5684.00
2019-05-22T08:25:51.084Z,5876.00
2019-05-22T08:26:54.504Z,5064.00
2019-05-22T08:27:51.103Z,4944.00
2019-05-22T08:28:51.169Z,5644.00
2019-05-22T08:29:51.105Z,5768.00
2019-05-22T08:30:51.097Z,6456.00
2019-05-22T08:31:51.467Z,6156.00
2019-05-22T08:32:51.412Z,5580.00
2019-05-22T08:33:51.655Z,4424.00
2019-05-22T08:34:51.269Z,4964.00
2019-05-22T08:35:51.692Z,6476.00
2019-05-22T08:37:01.508Z,5600.00
2019-05-22T08:37:51.861Z,4668.00
2019-05-22T08:38:51.926Z,3964.00
2019-05-22T08:39:51.559Z,3812.00
2019-05-22T08:40:51.696Z,5036.00
2019-05-22T08:41:51.533Z,5088.00
2019-05-22T08:42:52.355Z,5084.00
2019-05-22T08:44:13.820Z,4968.00
2019-05-22T08:44:52.057Z,4708.00
2019-05-22T08:45:52.133Z,4840.00
2019-05-22T08:46:56.614Z,4976.00
2019-05-22T08:47:52.668Z,4836.00
2019-05-22T08:48:56.108Z,4868.00
2019-05-22T08:49:51.738Z,4808.00
2019-05-22T08:50:53.563Z,5052.00
